Time;durP1;ratioP1;P1;durP2;ratioP2;P2;SDS_P1;SDS_P2;PMS_P1;PMS_P2;Temp;Humidity;BMP_temperature;BMP_pressure;BME280_temperature;BME280_humidity;BME280_pressure;Samples;Min_cycle;Max_cycle;Signal;HPM_P1;HPM_P2
2023/05/10 00:01:21;;;;;;;;;;;13.00;99.90;;;;;;5052769;28;19928;-76
2023/05/10 00:03:46;;;;;;;;;;;12.90;99.90;;;;;;5064630;28;19924;-75
2023/05/10 00:06:12;;;;;;;;;;;12.90;99.90;;;;;;5055275;28;20310;-76
2023/05/10 00:08:38;;;;;;;;;;;13.00;99.90;;;;;;5053133;28;20291;-76
2023/05/10 00:11:03;;;;;;;;;;;12.90;99.90;;;;;;5056959;28;19970;-76
2023/05/10 00:13:29;;;;;;;;;;;12.90;99.90;;;;;;5080504;28;19933;-76
2023/05/10 00:15:54;;;;;;;;;;;12.90;99.90;;;;;;5096666;28;19996;-76
2023/05/10 00:18:20;;;;;;;;;;;12.90;99.90;;;;;;5082558;28;19946;-76
2023/05/10 00:20:45;;;;;;;;;;;12.90;99.90;;;;;;5055410;28;19928;-76
2023/05/10 00:23:11;;;;;;;;;;;12.90;99.90;;;;;;5085672;28;19931;-76
2023/05/10 00:25:37;;;;;;;;;;;12.90;99.90;;;;;;5080095;28;19924;-76
2023/05/10 00:28:03;;;;;;;;;;;12.90;99.90;;;;;;5086236;28;19928;-76
2023/05/10 00:30:28;;;;;;;;;;;12.90;99.90;;;;;;5097420;28;19923;-76
2023/05/10 00:32:54;;;;;;;;;;;12.90;99.90;;;;;;5044294;28;19970;-76
2023/05/10 00:35:19;;;;;;;;;;;12.90;99.90;;;;;;5047646;28;20002;-75
2023/05/10 00:37:45;;;;;;;;;;;12.90;99.90;;;;;;5068507;28;20239;-76
2023/05/10 00:40:11;;;;;;;;;;;12.90;99.90;;;;;;5109140;28;19939;-76
2023/05/10 00:42:36;;;;;;;;;;;12.80;99.90;;;;;;5045061;28;19955;-76
2023/05/10 00:45:02;;;;;;;;;;;12.80;99.90;;;;;;5089824;28;19928;-75
2023/05/10 00:47:28;;;;;;;;;;;12.80;99.90;;;;;;5067074;28;19970;-75
2023/05/10 00:49:54;;;;;;;;;;;12.80;99.90;;;;;;5074943;28;19968;-76
2023/05/10 00:52:19;;;;;;;;;;;12.90;99.90;;;;;;5088953;28;19931;-76
2023/05/10 00:54:46;;;;;;;;;;;12.80;99.90;;;;;;5079929;28;20006;-76
2023/05/10 00:57:11;;;;;;;;;;;12.80;99.90;;;;;;5096399;28;19931;-76
2023/05/10 00:59:37;;;;;;;;;;;12.80;99.90;;;;;;5050620;28;19977;-76
2023/05/10 01:02:03;;;;;;;;;;;12.80;99.90;;;;;;5068917;28;19946;-76
2023/05/10 01:04:28;;;;;;;;;;;12.80;99.90;;;;;;5109145;28;19924;-76
2023/05/10 01:06:54;;;;;;;;;;;12.80;99.90;;;;;;5087877;28;20395;-77
2023/05/10 01:09:23;;;;;;;;;;;12.80;99.90;;;;;;5053502;28;19942;-77
2023/05/10 01:11:48;;;;;;;;;;;12.80;99.90;;;;;;5073227;28;19971;-77
2023/05/10 01:14:14;;;;;;;;;;;12.80;99.90;;;;;;5077230;28;20386;-77
2023/05/10 01:16:41;;;;;;;;;;;12.80;99.90;;;;;;5104710;28;19928;-76
2023/05/10 01:19:26;;;;;;;;;;;12.80;99.90;;;;;;5084315;28;20042;-77
2023/05/10 01:22:10;;;;;;;;;;;12.80;99.90;;;;;;5082557;28;19953;-77
2023/05/10 01:24:44;;;;;;;;;;;12.80;99.90;;;;;;5073171;28;19953;-76
2023/05/10 01:27:12;;;;;;;;;;;12.80;99.90;;;;;;5073583;28;20333;-76
2023/05/10 01:29:44;;;;;;;;;;;12.80;99.90;;;;;;5070495;28;19957;-76
2023/05/10 01:32:12;;;;;;;;;;;12.80;99.90;;;;;;5120305;28;19959;-76
2023/05/10 01:34:46;;;;;;;;;;;12.80;99.90;;;;;;5101946;28;19924;-76
2023/05/10 01:37:15;;;;;;;;;;;12.80;99.90;;;;;;5105035;28;19928;-76
2023/05/10 01:39:45;;;;;;;;;;;12.70;99.90;;;;;;5071093;28;19931;-77
2023/05/10 01:42:13;;;;;;;;;;;12.70;99.90;;;;;;5066327;28;20272;-76
2023/05/10 01:44:48;;;;;;;;;;;12.70;99.90;;;;;;5097071;28;19924;-76
2023/05/10 01:47:17;;;;;;;;;;;12.70;99.90;;;;;;5100526;28;19943;-76
2023/05/10 01:49:49;;;;;;;;;;;12.70;99.90;;;;;;5077115;28;19928;-77
2023/05/10 01:52:17;;;;;;;;;;;12.80;99.90;;;;;;5076598;28;19928;-77
2023/05/10 01:54:44;;;;;;;;;;;12.70;99.90;;;;;;5087978;28;19928;-77
2023/05/10 01:57:12;;;;;;;;;;;12.70;99.90;;;;;;5076651;28;19924;-77
2023/05/10 01:59:41;;;;;;;;;;;12.60;99.90;;;;;;5088601;28;19954;-77
2023/05/10 02:02:07;;;;;;;;;;;12.70;99.90;;;;;;5076691;28;19924;-77
2023/05/10 02:04:37;;;;;;;;;;;12.70;99.90;;;;;;5079919;28;19929;-77
2023/05/10 02:07:03;;;;;;;;;;;12.70;99.90;;;;;;5068244;28;19928;-77
2023/05/10 02:09:29;;;;;;;;;;;12.60;99.90;;;;;;5120553;27;19924;-77
2023/05/10 02:11:56;;;;;;;;;;;12.60;99.90;;;;;;5083421;28;19988;-77
2023/05/10 02:14:24;;;;;;;;;;;12.60;99.90;;;;;;5056937;28;19979;-77
2023/05/10 02:16:50;;;;;;;;;;;12.60;99.90;;;;;;5096709;28;20497;-77
2023/05/10 02:19:16;;;;;;;;;;;12.70;99.90;;;;;;5088572;28;19943;-77
2023/05/10 02:21:43;;;;;;;;;;;12.60;99.90;;;;;;5079226;28;19932;-77
2023/05/10 02:24:09;;;;;;;;;;;12.60;99.90;;;;;;5062660;28;19928;-78
2023/05/10 02:26:36;;;;;;;;;;;12.60;99.90;;;;;;5070149;28;19924;-77
2023/05/10 02:29:03;;;;;;;;;;;12.60;99.90;;;;;;5065791;28;20398;-77
2023/05/10 02:31:30;;;;;;;;;;;12.60;99.90;;;;;;5047209;28;19947;-77
2023/05/10 02:33:56;;;;;;;;;;;12.60;99.90;;;;;;5093993;28;20320;-77
2023/05/10 02:36:22;;;;;;;;;;;12.60;99.90;;;;;;5094746;28;19932;-77
2023/05/10 02:38:48;;;;;;;;;;;12.60;99.90;;;;;;5060485;28;19931;-77
2023/05/10 02:41:14;;;;;;;;;;;12.60;99.90;;;;;;5076365;28;19978;-77
2023/05/10 02:43:40;;;;;;;;;;;12.60;99.90;;;;;;5094711;28;20310;-77
2023/05/10 02:46:06;;;;;;;;;;;12.50;99.90;;;;;;5076059;28;19958;-77
2023/05/10 02:48:31;;;;;;;;;;;12.50;99.90;;;;;;5076835;28;19932;-78
2023/05/10 02:51:00;;;;;;;;;;;12.60;99.90;;;;;;5043680;28;19943;-77
2023/05/10 02:53:33;;;;;;;;;;;12.50;99.90;;;;;;5060535;28;19972;-77
2023/05/10 02:56:00;;;;;;;;;;;12.50;99.90;;;;;;5059461;28;19943;-77
2023/05/10 02:58:26;;;;;;;;;;;12.50;99.90;;;;;;5061145;28;19924;-77
2023/05/10 03:00:52;;;;;;;;;;;12.50;99.90;;;;;;5091793;28;19950;-77
2023/05/10 03:03:17;;;;;;;;;;;12.50;99.90;;;;;;5091791;28;19928;-77
2023/05/10 03:05:43;;;;;;;;;;;12.50;99.90;;;;;;5061745;28;19924;-77
2023/05/10 03:08:09;;;;;;;;;;;12.50;99.90;;;;;;5076082;28;19932;-77
2023/05/10 03:10:38;;;;;;;;;;;12.50;99.90;;;;;;5042388;28;19977;-77
2023/05/10 03:13:35;;;;;;;;;;;12.50;99.90;;;;;;5061489;28;19928;-77
2023/05/10 03:16:03;;;;;;;;;;;12.50;99.90;;;;;;5052642;28;19931;-77
2023/05/10 03:18:33;;;;;;;;;;;12.60;99.90;;;;;;5074509;28;19978;-77
2023/05/10 03:21:01;;;;;;;;;;;12.50;99.90;;;;;;5059604;28;19924;-76
2023/05/10 03:23:29;;;;;;;;;;;12.50;99.90;;;;;;5060631;28;19928;-77
2023/05/10 03:25:55;;;;;;;;;;;12.50;99.90;;;;;;5093770;28;19949;-77
2023/05/10 03:28:21;;;;;;;;;;;12.50;99.90;;;;;;5060919;28;19924;-77
2023/05/10 03:30:47;;;;;;;;;;;12.50;99.90;;;;;;5075263;28;19932;-77
2023/05/10 03:33:14;;;;;;;;;;;12.50;99.90;;;;;;5058455;28;19928;-77
2023/05/10 03:35:39;;;;;;;;;;;12.50;99.90;;;;;;5062881;28;19923;-77
2023/05/10 03:38:05;;;;;;;;;;;12.50;99.90;;;;;;5091880;28;20001;-76
2023/05/10 03:40:31;;;;;;;;;;;12.50;99.90;;;;;;5052812;28;19928;-76
2023/05/10 03:42:58;;;;;;;;;;;12.50;99.90;;;;;;5063443;28;19924;-76
2023/05/10 03:45:23;;;;;;;;;;;12.50;99.90;;;;;;5080979;28;19924;-76
2023/05/10 03:47:49;;;;;;;;;;;12.50;99.90;;;;;;5080528;28;19955;-76
2023/05/10 03:50:14;;;;;;;;;;;12.40;99.90;;;;;;5091399;28;19928;-76
2023/05/10 03:52:40;;;;;;;;;;;12.50;99.90;;;;;;5053658;28;20448;-76
2023/05/10 03:55:06;;;;;;;;;;;12.50;99.90;;;;;;5080488;28;19931;-76
2023/05/10 03:57:32;;;;;;;;;;;12.50;99.90;;;;;;5083703;28;19932;-76
2023/05/10 03:59:57;;;;;;;;;;;12.40;99.90;;;;;;5097420;28;19924;-76
2023/05/10 04:02:23;;;;;;;;;;;12.40;99.90;;;;;;5066096;28;19931;-76
2023/05/10 04:04:49;;;;;;;;;;;12.40;99.90;;;;;;5079798;28;20442;-76
2023/05/10 04:07:14;;;;;;;;;;;12.40;99.90;;;;;;5043282;28;19967;-76
2023/05/10 04:09:40;;;;;;;;;;;12.50;99.90;;;;;;5096210;28;19993;-76
2023/05/10 04:12:06;;;;;;;;;;;12.50;99.90;;;;;;5081843;28;20419;-77
2023/05/10 04:14:31;;;;;;;;;;;12.50;99.90;;;;;;5069600;28;20003;-76
2023/05/10 04:16:57;;;;;;;;;;;12.50;99.90;;;;;;5097475;28;19927;-76
2023/05/10 04:19:23;;;;;;;;;;;12.50;99.90;;;;;;5066101;28;19924;-76
2023/05/10 04:21:49;;;;;;;;;;;12.50;99.90;;;;;;5064312;28;19946;-76
2023/05/10 04:24:14;;;;;;;;;;;12.60;99.90;;;;;;5096645;28;20112;-76
2023/05/10 04:26:40;;;;;;;;;;;12.60;99.90;;;;;;5051790;28;19949;-76
2023/05/10 04:29:05;;;;;;;;;;;12.50;99.90;;;;;;5080138;28;19935;-76
2023/05/10 04:31:31;;;;;;;;;;;12.60;99.90;;;;;;5051497;28;19924;-76
2023/05/10 04:33:57;;;;;;;;;;;12.60;99.90;;;;;;5078760;28;19928;-77
2023/05/10 04:36:22;;;;;;;;;;;12.60;99.90;;;;;;5081370;28;19934;-76
2023/05/10 04:38:48;;;;;;;;;;;12.60;99.90;;;;;;5074272;28;20286;-76
2023/05/10 04:41:13;;;;;;;;;;;12.60;99.90;;;;;;5040776;28;19936;-76
2023/05/10 04:43:39;;;;;;;;;;;12.50;99.90;;;;;;5061459;28;19924;-76
2023/05/10 04:46:05;;;;;;;;;;;12.50;99.90;;;;;;5058301;28;20361;-76
2023/05/10 04:48:31;;;;;;;;;;;12.50;99.90;;;;;;5077582;28;19941;-76
2023/05/10 04:50:56;;;;;;;;;;;12.50;99.90;;;;;;5060878;28;21162;-76
2023/05/10 04:53:22;;;;;;;;;;;12.50;99.90;;;;;;5064777;28;19939;-76
2023/05/10 04:55:48;;;;;;;;;;;12.50;99.90;;;;;;5063475;28;19928;-76
2023/05/10 04:58:14;;;;;;;;;;;12.50;99.90;;;;;;5080871;28;19924;-76
2023/05/10 05:00:39;;;;;;;;;;;12.50;99.90;;;;;;5062146;28;19931;-76
2023/05/10 05:03:05;;;;;;;;;;;12.50;99.90;;;;;;5056005;28;19925;-76
2023/05/10 05:05:31;;;;;;;;;;;12.50;99.90;;;;;;5067335;28;20628;-76
2023/05/10 05:07:57;;;;;;;;;;;12.50;99.90;;;;;;5080699;28;19987;-76
2023/05/10 05:10:22;;;;;;;;;;;12.50;99.90;;;;;;5064455;28;20458;-76
2023/05/10 05:12:48;;;;;;;;;;;12.50;99.90;;;;;;5111804;28;20465;-76
2023/05/10 05:15:15;;;;;;;;;;;12.50;99.90;;;;;;5080459;28;19958;-76
2023/05/10 05:17:40;;;;;;;;;;;12.50;99.90;;;;;;5045802;28;19959;-76
2023/05/10 05:20:07;;;;;;;;;;;12.50;99.90;;;;;;5079692;28;19946;-76
2023/05/10 05:22:32;;;;;;;;;;;12.50;99.90;;;;;;5063778;28;19932;-76
2023/05/10 05:24:58;;;;;;;;;;;12.50;99.90;;;;;;5063284;28;19995;-76
2023/05/10 05:27:25;;;;;;;;;;;12.50;99.90;;;;;;5113468;28;19924;-76
2023/05/10 05:29:54;;;;;;;;;;;12.50;99.90;;;;;;5064190;28;19928;-76
2023/05/10 05:32:20;;;;;;;;;;;12.50;99.90;;;;;;5064917;28;19924;-76
2023/05/10 05:34:46;;;;;;;;;;;12.50;99.90;;;;;;5061741;28;19928;-76
2023/05/10 05:37:16;;;;;;;;;;;12.50;99.90;;;;;;5066425;28;20502;-76
2023/05/10 05:39:42;;;;;;;;;;;12.50;99.90;;;;;;5097515;28;19924;-76
2023/05/10 05:42:08;;;;;;;;;;;12.60;99.90;;;;;;5079831;28;19928;-76
2023/05/10 05:44:34;;;;;;;;;;;12.50;99.90;;;;;;5097278;28;19928;-76
2023/05/10 05:46:59;;;;;;;;;;;12.50;99.90;;;;;;5046742;28;19932;-76
2023/05/10 05:49:25;;;;;;;;;;;12.50;99.90;;;;;;5084774;28;19973;-76
2023/05/10 05:51:50;;;;;;;;;;;12.50;99.90;;;;;;5083324;28;19984;-77
2023/05/10 05:54:16;;;;;;;;;;;12.50;99.90;;;;;;5055589;28;19928;-76
2023/05/10 05:56:42;;;;;;;;;;;12.50;99.90;;;;;;5067157;28;19935;-76
2023/05/10 05:59:07;;;;;;;;;;;12.60;99.90;;;;;;5066048;28;19931;-76
2023/05/10 06:01:33;;;;;;;;;;;12.60;99.90;;;;;;5067461;28;20040;-76
2023/05/10 06:03:59;;;;;;;;;;;12.70;99.90;;;;;;5066975;28;20484;-76
2023/05/10 06:06:24;;;;;;;;;;;12.70;99.90;;;;;;5068421;28;20003;-76
2023/05/10 06:08:50;;;;;;;;;;;12.70;99.90;;;;;;5064067;28;19928;-76
2023/05/10 06:11:15;;;;;;;;;;;12.80;99.90;;;;;;5117812;28;19942;-76
2023/05/10 06:13:42;;;;;;;;;;;12.80;99.90;;;;;;5083002;28;19924;-77
2023/05/10 06:16:07;;;;;;;;;;;12.90;99.90;;;;;;5100390;28;19924;-77
2023/05/10 06:18:33;;;;;;;;;;;12.90;99.90;;;;;;5053568;28;19925;-77
2023/05/10 06:20:59;;;;;;;;;;;13.10;99.90;;;;;;5079436;28;19932;-77
2023/05/10 06:23:25;;;;;;;;;;;13.20;99.90;;;;;;5050731;28;19931;-77
2023/05/10 06:25:51;;;;;;;;;;;13.30;99.90;;;;;;5062192;28;19924;-77
2023/05/10 06:28:16;;;;;;;;;;;13.40;99.90;;;;;;5087489;28;20003;-77
2023/05/10 06:30:42;;;;;;;;;;;13.50;99.90;;;;;;5050176;28;19995;-77
2023/05/10 06:33:08;;;;;;;;;;;13.50;99.90;;;;;;5067087;28;19935;-77
2023/05/10 06:35:33;;;;;;;;;;;13.50;99.90;;;;;;5050567;28;19970;-77
2023/05/10 06:37:59;;;;;;;;;;;13.60;99.90;;;;;;5095805;28;20022;-78
2023/05/10 06:40:25;;;;;;;;;;;13.70;99.90;;;;;;5116171;28;20341;-77
2023/05/10 06:42:51;;;;;;;;;;;13.60;99.90;;;;;;5064627;28;19928;-77
2023/05/10 06:45:16;;;;;;;;;;;13.60;99.90;;;;;;5051607;28;19999;-77
2023/05/10 06:47:42;;;;;;;;;;;13.70;99.90;;;;;;5063944;28;19932;-77
2023/05/10 06:50:09;;;;;;;;;;;13.70;99.90;;;;;;5065298;28;20390;-77
2023/05/10 06:52:34;;;;;;;;;;;13.70;99.90;;;;;;5065741;28;19935;-77
2023/05/10 06:55:00;;;;;;;;;;;13.70;99.90;;;;;;5082032;28;19928;-77
2023/05/10 06:57:26;;;;;;;;;;;13.70;99.90;;;;;;5066662;28;19924;-77
2023/05/10 06:59:52;;;;;;;;;;;13.70;99.90;;;;;;5066499;28;19924;-77
2023/05/10 07:02:17;;;;;;;;;;;13.60;99.90;;;;;;5083452;28;19938;-77
2023/05/10 07:04:43;;;;;;;;;;;13.60;99.90;;;;;;5069308;28;19924;-77
2023/05/10 07:07:08;;;;;;;;;;;13.60;99.90;;;;;;5095027;28;19939;-78
2023/05/10 07:09:34;;;;;;;;;;;13.50;99.90;;;;;;5065200;28;19975;-77
2023/05/10 07:12:01;;;;;;;;;;;13.60;99.90;;;;;;5080982;28;19924;-77
2023/05/10 07:14:27;;;;;;;;;;;13.50;99.90;;;;;;5082738;28;19924;-77
2023/05/10 07:16:53;;;;;;;;;;;13.50;99.90;;;;;;5048897;28;19971;-77
2023/05/10 07:19:19;;;;;;;;;;;13.50;99.90;;;;;;5061222;28;20337;-77
2023/05/10 07:21:45;;;;;;;;;;;13.60;99.90;;;;;;5078125;28;19931;-77
2023/05/10 07:24:10;;;;;;;;;;;13.60;99.90;;;;;;5078299;28;19969;-76
2023/05/10 07:26:36;;;;;;;;;;;13.70;99.90;;;;;;5048106;28;19946;-76
2023/05/10 07:29:02;;;;;;;;;;;13.70;99.90;;;;;;5082210;28;19931;-76
2023/05/10 07:31:27;;;;;;;;;;;13.70;99.90;;;;;;5055467;28;19928;-76
2023/05/10 07:33:53;;;;;;;;;;;13.70;99.90;;;;;;5095841;28;19931;-76
2023/05/10 07:36:19;;;;;;;;;;;13.70;99.90;;;;;;5070787;28;19935;-76
2023/05/10 07:38:45;;;;;;;;;;;13.70;99.90;;;;;;5062411;28;19924;-76
2023/05/10 07:41:13;;;;;;;;;;;13.70;99.90;;;;;;5064333;28;19969;-76
2023/05/10 07:43:39;;;;;;;;;;;13.80;99.90;;;;;;5065959;28;19991;-76
2023/05/10 07:46:05;;;;;;;;;;;13.80;99.90;;;;;;5062004;28;19931;-76
2023/05/10 07:48:31;;;;;;;;;;;13.80;99.90;;;;;;5048690;28;19928;-76
2023/05/10 07:50:56;;;;;;;;;;;13.70;99.90;;;;;;5063697;28;19939;-76
2023/05/10 07:53:22;;;;;;;;;;;13.70;99.90;;;;;;5080872;28;20292;-76
2023/05/10 07:55:51;;;;;;;;;;;13.70;99.90;;;;;;5078855;28;20054;-74
2023/05/10 07:58:17;;;;;;;;;;;13.80;99.90;;;;;;5063479;28;19931;-76
2023/05/10 08:00:42;;;;;;;;;;;14.00;99.90;;;;;;5045666;28;19932;-76
2023/05/10 08:03:08;;;;;;;;;;;14.10;99.90;;;;;;5062981;28;19924;-77
2023/05/10 08:05:33;;;;;;;;;;;14.30;99.90;;;;;;5076586;28;19932;-77
2023/05/10 08:08:00;;;;;;;;;;;14.60;99.90;;;;;;5069755;28;19967;-76
2023/05/10 08:10:25;;;;;;;;;;;14.70;99.90;;;;;;5075995;28;19935;-76
2023/05/10 08:12:51;;;;;;;;;;;14.90;99.90;;;;;;5092410;28;19924;-76
2023/05/10 08:15:16;;;;;;;;;;;14.80;99.90;;;;;;5046320;28;19931;-76
2023/05/10 08:17:42;;;;;;;;;;;14.80;99.90;;;;;;5074467;28;19932;-76
2023/05/10 08:20:08;;;;;;;;;;;14.90;99.90;;;;;;5064760;28;19947;-76
2023/05/10 08:22:34;;;;;;;;;;;15.00;99.90;;;;;;5068174;28;19924;-76
2023/05/10 08:24:59;;;;;;;;;;;15.10;99.90;;;;;;5063234;28;19935;-76
2023/05/10 08:27:25;;;;;;;;;;;15.20;99.90;;;;;;5064184;28;19928;-76
2023/05/10 08:29:51;;;;;;;;;;;15.30;99.90;;;;;;5063870;28;19985;-76
2023/05/10 08:32:17;;;;;;;;;;;15.40;99.90;;;;;;5071993;28;19977;-77
2023/05/10 08:34:42;;;;;;;;;;;15.50;99.90;;;;;;5063253;28;19989;-76
2023/05/10 08:37:08;;;;;;;;;;;15.60;99.90;;;;;;5080995;28;19926;-76
2023/05/10 08:39:34;;;;;;;;;;;15.50;99.90;;;;;;5064361;28;19932;-76
2023/05/10 08:42:01;;;;;;;;;;;15.40;99.90;;;;;;5064295;28;20355;-76
2023/05/10 08:44:27;;;;;;;;;;;15.40;99.90;;;;;;5065704;28;20377;-76
2023/05/10 08:46:54;;;;;;;;;;;15.40;99.90;;;;;;5081274;28;19928;-76
2023/05/10 08:49:19;;;;;;;;;;;15.30;99.90;;;;;;5078983;28;20295;-76
2023/05/10 08:51:49;;;;;;;;;;;15.20;99.90;;;;;;5064493;28;19988;-76
2023/05/10 08:54:15;;;;;;;;;;;15.20;99.90;;;;;;5061650;28;19924;-76
2023/05/10 08:56:41;;;;;;;;;;;15.30;99.90;;;;;;5046873;28;19931;-76
2023/05/10 08:59:06;;;;;;;;;;;15.30;99.90;;;;;;5083900;28;19928;-76
2023/05/10 09:01:35;;;;;;;;;;;15.30;99.90;;;;;;5052628;28;19996;-76
2023/05/10 09:04:00;;;;;;;;;;;15.40;99.90;;;;;;5063972;28;20294;-76
2023/05/10 09:06:26;;;;;;;;;;;15.30;99.90;;;;;;5062996;28;19931;-76
2023/05/10 09:08:51;;;;;;;;;;;15.20;99.90;;;;;;5080262;28;19958;-76
2023/05/10 09:11:17;;;;;;;;;;;15.20;99.90;;;;;;5063803;28;20391;-76
2023/05/10 09:13:43;;;;;;;;;;;15.10;99.90;;;;;;5067002;28;20292;-76
2023/05/10 09:16:09;;;;;;;;;;;15.10;99.90;;;;;;5065716;28;19931;-76
2023/05/10 09:18:35;;;;;;;;;;;15.10;99.90;;;;;;5068750;28;19924;-76
2023/05/10 09:21:00;;;;;;;;;;;15.10;99.90;;;;;;5080440;28;20552;-76
2023/05/10 09:23:31;;;;;;;;;;;15.00;99.90;;;;;;5052653;28;19935;-76
2023/05/10 09:26:04;;;;;;;;;;;15.00;99.90;;;;;;5075279;28;19970;-76
2023/05/10 09:28:53;;;;;;;;;;;15.10;99.90;;;;;;5092286;28;19924;-76
2023/05/10 09:31:19;;;;;;;;;;;15.10;99.90;;;;;;5077931;28;20401;-76
2023/05/10 09:33:49;;;;;;;;;;;15.20;99.90;;;;;;5066929;28;19928;-76
2023/05/10 09:36:15;;;;;;;;;;;15.40;99.90;;;;;;5059491;28;19928;-76
2023/05/10 09:38:51;;;;;;;;;;;15.50;99.90;;;;;;5082645;28;20011;-76
2023/05/10 09:41:27;;;;;;;;;;;15.60;99.90;;;;;;5046071;28;19935;-75
2023/05/10 09:43:56;;;;;;;;;;;15.70;99.90;;;;;;5080092;28;19935;-76
2023/05/10 09:46:25;;;;;;;;;;;15.70;99.90;;;;;;5045673;28;19924;-76
2023/05/10 09:48:51;;;;;;;;;;;15.70;99.90;;;;;;5066320;28;19966;-75
2023/05/10 09:51:24;;;;;;;;;;;15.60;99.90;;;;;;5062180;28;19924;-75
2023/05/10 09:54:08;;;;;;;;;;;15.60;99.90;;;;;;5058255;28;19949;-76
2023/05/10 09:56:35;;;;;;;;;;;15.60;99.90;;;;;;5064581;28;19932;-75
2023/05/10 09:59:05;;;;;;;;;;;15.60;99.90;;;;;;5064281;28;19925;-75
2023/05/10 10:01:30;;;;;;;;;;;15.60;99.90;;;;;;5083350;28;19936;-75
2023/05/10 10:03:57;;;;;;;;;;;15.60;99.90;;;;;;5064893;28;19938;-75
2023/05/10 10:06:23;;;;;;;;;;;15.70;99.90;;;;;;5075109;28;19959;-76
2023/05/10 10:08:50;;;;;;;;;;;15.70;99.90;;;;;;5063957;28;19931;-76
2023/05/10 10:11:15;;;;;;;;;;;15.80;99.90;;;;;;5062309;28;19996;-75
2023/05/10 10:13:41;;;;;;;;;;;15.80;99.90;;;;;;5082791;28;19924;-75
2023/05/10 10:16:08;;;;;;;;;;;15.80;99.90;;;;;;5049619;28;19935;-76
2023/05/10 10:18:38;;;;;;;;;;;15.70;99.90;;;;;;5067043;28;19925;-75
2023/05/10 10:21:08;;;;;;;;;;;15.70;99.90;;;;;;5063036;28;20519;-76
2023/05/10 10:23:34;;;;;;;;;;;15.80;99.90;;;;;;5063387;28;19924;-75
2023/05/10 10:26:00;;;;;;;;;;;15.80;99.90;;;;;;5097507;28;21377;-76
2023/05/10 10:29:01;;;;;;;;;;;15.90;99.90;;;;;;5078681;28;20765;-75
2023/05/10 10:31:41;;;;;;;;;;;15.90;99.90;;;;;;4985411;28;19932;-75
2023/05/10 10:34:09;;;;;;;;;;;16.00;99.90;;;;;;5051620;28;19981;-75
2023/05/10 10:36:47;;;;;;;;;;;16.10;99.90;;;;;;5098447;28;19931;-75
2023/05/10 10:39:13;;;;;;;;;;;16.20;99.90;;;;;;5066733;28;19928;-75
2023/05/10 10:41:49;;;;;;;;;;;16.30;99.90;;;;;;5066296;28;19924;-75
2023/05/10 10:44:33;;;;;;;;;;;16.50;99.90;;;;;;5067330;28;19931;-75
2023/05/10 10:47:11;;;;;;;;;;;16.60;99.90;;;;;;5052479;28;20007;-76
2023/05/10 10:49:39;;;;;;;;;;;16.70;99.90;;;;;;5083941;28;19924;-75
2023/05/10 10:52:26;;;;;;;;;;;16.70;99.90;;;;;;5066710;28;19928;-75
2023/05/10 10:55:08;;;;;;;;;;;16.70;99.90;;;;;;5082744;28;19923;-76
2023/05/10 10:57:40;;;;;;;;;;;16.70;99.90;;;;;;5074172;28;19946;-75
2023/05/10 11:00:24;;;;;;;;;;;16.70;99.90;;;;;;5109722;28;20381;-75
2023/05/10 11:02:55;;;;;;;;;;;16.60;99.90;;;;;;5066627;28;19950;-75
2023/05/10 11:05:24;;;;;;;;;;;16.60;99.90;;;;;;5066352;28;20397;-75
2023/05/10 11:07:54;;;;;;;;;;;16.50;99.90;;;;;;5063562;28;19963;-75
2023/05/10 11:10:20;;;;;;;;;;;16.50;99.90;;;;;;5064072;28;19924;-75
2023/05/10 11:13:00;;;;;;;;;;;16.50;99.90;;;;;;5062857;28;19957;-75
2023/05/10 11:15:33;;;;;;;;;;;16.50;99.90;;;;;;5079186;28;19964;-75
2023/05/10 11:17:58;;;;;;;;;;;16.50;99.90;;;;;;5059968;28;20276;-75
2023/05/10 11:20:32;;;;;;;;;;;16.40;99.90;;;;;;5075113;28;20011;-76
2023/05/10 11:23:10;;;;;;;;;;;16.30;99.90;;;;;;5066711;28;19924;-76
2023/05/10 11:25:40;;;;;;;;;;;16.20;99.90;;;;;;5063609;28;19924;-76
2023/05/10 11:28:06;;;;;;;;;;;16.10;99.90;;;;;;5063199;28;19970;-76
2023/05/10 11:30:31;;;;;;;;;;;16.00;99.90;;;;;;5055160;28;20314;-76
2023/05/10 11:32:57;;;;;;;;;;;15.90;99.90;;;;;;5080693;28;20001;-75
2023/05/10 11:35:22;;;;;;;;;;;15.90;99.90;;;;;;5065718;28;20461;-76
2023/05/10 11:37:48;;;;;;;;;;;15.90;99.90;;;;;;5047661;28;19924;-75
2023/05/10 11:40:14;;;;;;;;;;;15.90;99.90;;;;;;5063543;28;19924;-75
2023/05/10 11:42:40;;;;;;;;;;;15.90;99.90;;;;;;5043546;28;19928;-75
2023/05/10 11:45:05;;;;;;;;;;;15.90;99.90;;;;;;5093427;28;19929;-75
2023/05/10 11:47:31;;;;;;;;;;;15.90;99.90;;;;;;5077218;28;20366;-75
2023/05/10 11:49:57;;;;;;;;;;;15.90;99.90;;;;;;5078043;28;19971;-75
2023/05/10 11:52:23;;;;;;;;;;;15.90;99.90;;;;;;5060841;28;19932;-75
2023/05/10 11:54:52;;;;;;;;;;;15.90;99.90;;;;;;5062624;28;19931;-75
2023/05/10 11:57:19;;;;;;;;;;;15.90;99.90;;;;;;5063749;28;19931;-75
2023/05/10 11:59:45;;;;;;;;;;;15.90;99.90;;;;;;5061106;28;19959;-75
2023/05/10 12:02:11;;;;;;;;;;;15.90;99.90;;;;;;5059535;28;20379;-75
2023/05/10 12:04:37;;;;;;;;;;;16.00;99.90;;;;;;5077657;28;19970;-76
2023/05/10 12:07:02;;;;;;;;;;;16.10;99.90;;;;;;5077411;28;19932;-75
2023/05/10 12:09:28;;;;;;;;;;;16.10;99.90;;;;;;5061813;28;19931;-75
2023/05/10 12:11:56;;;;;;;;;;;16.30;99.90;;;;;;5062661;28;19963;-75
2023/05/10 12:14:22;;;;;;;;;;;16.40;99.90;;;;;;5062518;28;19931;-75
2023/05/10 12:16:48;;;;;;;;;;;16.60;99.90;;;;;;5092113;28;19924;-77
2023/05/10 12:19:17;;;;;;;;;;;16.80;99.90;;;;;;5082484;28;19928;-77
2023/05/10 12:21:43;;;;;;;;;;;16.90;99.90;;;;;;5064159;28;19932;-76
2023/05/10 12:24:10;;;;;;;;;;;17.00;99.90;;;;;;5081777;28;19931;-77
2023/05/10 12:26:36;;;;;;;;;;;17.10;99.90;;;;;;5065316;28;19992;-77
2023/05/10 12:29:11;;;;;;;;;;;17.20;99.90;;;;;;5081976;28;19924;-77
2023/05/10 12:31:53;;;;;;;;;;;17.20;99.90;;;;;;5066024;28;19939;-77
2023/05/10 12:34:23;;;;;;;;;;;17.20;99.90;;;;;;5079650;28;20371;-77
2023/05/10 12:36:50;;;;;;;;;;;17.30;99.90;;;;;;5065175;28;19933;-77
2023/05/10 12:39:15;;;;;;;;;;;17.20;99.90;;;;;;5065131;28;19946;-77
2023/05/10 12:41:41;;;;;;;;;;;17.20;99.90;;;;;;5046698;28;19924;-77
2023/05/10 12:44:07;;;;;;;;;;;17.10;99.90;;;;;;5072243;28;19924;-77
2023/05/10 12:46:32;;;;;;;;;;;17.10;99.90;;;;;;5074198;28;20143;-77
2023/05/10 12:48:58;;;;;;;;;;;17.10;99.90;;;;;;5079315;28;19947;-77
2023/05/10 12:51:23;;;;;;;;;;;17.20;99.90;;;;;;5075972;28;19928;-77
2023/05/10 12:53:49;;;;;;;;;;;17.20;99.90;;;;;;5074649;28;19999;-77
2023/05/10 12:56:15;;;;;;;;;;;17.30;99.90;;;;;;5046323;28;20323;-77
2023/05/10 12:58:40;;;;;;;;;;;17.20;99.90;;;;;;5098809;28;19939;-77
2023/05/10 13:01:06;;;;;;;;;;;17.10;99.90;;;;;;5065667;28;19925;-77
2023/05/10 13:03:32;;;;;;;;;;;17.20;99.90;;;;;;5064721;28;19928;-77
2023/05/10 13:05:57;;;;;;;;;;;17.10;99.90;;;;;;5079117;28;19928;-77
2023/05/10 13:08:23;;;;;;;;;;;17.10;99.90;;;;;;5097112;28;19955;-77
2023/05/10 13:10:49;;;;;;;;;;;17.10;99.90;;;;;;5048852;28;20434;-76
2023/05/10 13:13:15;;;;;;;;;;;17.10;99.90;;;;;;5078672;28;19925;-77
2023/05/10 13:15:40;;;;;;;;;;;16.90;99.90;;;;;;5080372;28;20011;-77
2023/05/10 13:18:06;;;;;;;;;;;16.90;99.90;;;;;;5077715;28;19982;-79
2023/05/10 13:20:31;;;;;;;;;;;16.90;99.90;;;;;;5057463;28;20273;-79
2023/05/10 13:22:57;;;;;;;;;;;16.90;99.90;;;;;;5072267;28;19929;-78
2023/05/10 13:25:23;;;;;;;;;;;17.00;99.90;;;;;;5062876;28;19939;-78
2023/05/10 13:27:48;;;;;;;;;;;17.00;99.90;;;;;;5077048;28;19925;-78
2023/05/10 13:30:14;;;;;;;;;;;17.10;99.90;;;;;;5064672;28;19993;-78
2023/05/10 13:32:40;;;;;;;;;;;17.10;99.90;;;;;;5079540;28;19932;-79
2023/05/10 13:35:05;;;;;;;;;;;17.10;99.90;;;;;;5062101;28;19928;-78
2023/05/10 13:37:32;;;;;;;;;;;17.10;99.90;;;;;;5062141;28;19925;-79
2023/05/10 13:39:57;;;;;;;;;;;17.10;99.90;;;;;;5096612;28;20011;-78
2023/05/10 13:42:23;;;;;;;;;;;17.20;99.90;;;;;;5070276;28;19932;-81
2023/05/10 13:44:49;;;;;;;;;;;17.30;99.90;;;;;;5096715;28;19931;-78
2023/05/10 13:47:15;;;;;;;;;;;17.40;99.90;;;;;;5075557;28;20288;-79
2023/05/10 13:49:41;;;;;;;;;;;17.50;99.90;;;;;;5098000;28;19926;-78
2023/05/10 13:52:06;;;;;;;;;;;17.50;99.90;;;;;;5064325;28;19928;-79
2023/05/10 13:54:35;;;;;;;;;;;17.50;99.90;;;;;;5075520;28;19924;-77
2023/05/10 13:57:01;;;;;;;;;;;17.50;99.90;;;;;;5077363;28;20027;-77
2023/05/10 13:59:27;;;;;;;;;;;17.40;99.90;;;;;;5057387;28;19955;-77
2023/05/10 14:01:52;;;;;;;;;;;17.40;99.90;;;;;;5108286;28;20410;-77
2023/05/10 14:04:18;;;;;;;;;;;17.30;99.90;;;;;;5087406;28;20352;-77
2023/05/10 14:06:43;;;;;;;;;;;17.20;99.90;;;;;;5064956;28;19925;-77
2023/05/10 14:09:09;;;;;;;;;;;17.30;99.90;;;;;;5047135;28;20354;-77
2023/05/10 14:11:35;;;;;;;;;;;17.30;99.90;;;;;;5078933;28;19925;-77
2023/05/10 14:14:00;;;;;;;;;;;17.30;99.90;;;;;;5064678;28;19932;-77
2023/05/10 14:16:27;;;;;;;;;;;17.30;99.90;;;;;;5063710;28;19992;-77